Terminal Aerodrome Forecast
Issued by NWS

Home | Current Version | Previous Version | Text Only | Print | Product List | Glossary On
Versions: 1 2 3 4 5 6 7 8 9 10 11 12 13 14 15
000
FTUS42 KTAE 181500 AAA
TAFABY
TAF AMD
KABY 181509Z 1815/1912 06010G20KT 3SM RA BKN008 OVC010
     FM190400 02010G20KT 3SM -DZ BR BKN007=

USA.gov is the U.S. government's official web portal to all federal, state and local government web resources and services.